createdAt,value
2023-08-01T00:01:14.467Z,91.31
2023-08-01T00:03:43.060Z,91.42
2023-08-01T00:06:11.504Z,91.30
2023-08-01T00:08:39.877Z,91.32
2023-08-01T00:11:08.580Z,91.30
2023-08-01T00:13:36.914Z,91.47
2023-08-01T00:16:08.099Z,91.55
2023-08-01T00:18:37.137Z,91.79
2023-08-01T00:21:11.500Z,91.16
2023-08-01T00:23:40.081Z,90.57
2023-08-01T00:26:08.449Z,90.09
2023-08-01T00:28:36.853Z,90.07
2023-08-01T00:31:06.819Z,89.87
2023-08-01T00:33:35.407Z,89.51
2023-08-01T00:36:04.079Z,89.58
2023-08-01T00:38:32.444Z,89.68
2023-08-01T00:41:00.936Z,90.52
2023-08-01T00:43:29.364Z,92.02
2023-08-01T00:46:02.094Z,93.00
2023-08-01T00:48:31.494Z,93.36
2023-08-01T00:51:01.492Z,94.35
2023-08-01T00:53:30.172Z,94.17
2023-08-01T00:55:59.614Z,93.71
2023-08-01T00:58:28.018Z,92.93
2023-08-01T01:01:01.125Z,93.08
2023-08-01T01:03:30.946Z,92.97
2023-08-01T01:06:23.200Z,92.70
2023-08-01T01:08:51.967Z,93.35
2023-08-01T01:11:20.627Z,93.11
2023-08-01T01:13:49.073Z,92.74
2023-08-01T01:16:17.492Z,92.36
2023-08-01T01:18:45.982Z,92.30
2023-08-01T01:21:14.386Z,91.83
2023-08-01T01:24:00.892Z,91.26
2023-08-01T01:26:29.894Z,90.96
2023-08-01T01:28:58.352Z,91.30
2023-08-01T01:31:27.290Z,91.35
2023-08-01T01:33:56.356Z,91.35
2023-08-01T01:36:24.777Z,91.58
2023-08-01T01:38:53.151Z,91.79
2023-08-01T01:41:21.815Z,92.68
2023-08-01T01:43:50.320Z,92.75
2023-08-01T01:46:18.942Z,93.66
2023-08-01T01:48:47.660Z,93.61
2023-08-01T01:51:16.221Z,93.28
2023-08-01T01:53:44.638Z,92.75
2023-08-01T01:56:13.131Z,92.36
2023-08-01T01:58:41.796Z,92.19
2023-08-01T02:01:10.398Z,92.21
2023-08-01T02:03:38.852Z,91.73
2023-08-01T02:06:07.305Z,91.60
2023-08-01T02:08:35.682Z,91.32
2023-08-01T02:11:04.296Z,91.25
2023-08-01T02:13:35.410Z,91.37
2023-08-01T02:16:04.318Z,91.07
2023-08-01T02:18:32.847Z,90.94
2023-08-01T02:21:01.284Z,90.58
2023-08-01T02:23:30.391Z,90.61
2023-08-01T02:25:58.766Z,90.74
2023-08-01T02:28:27.160Z,91.26
2023-08-01T02:30:55.615Z,91.55
2023-08-01T02:33:24.093Z,91.88
2023-08-01T02:35:52.569Z,92.19
2023-08-01T02:38:20.977Z,93.21
2023-08-01T02:40:49.322Z,93.32
2023-08-01T02:43:18.613Z,93.14
2023-08-01T02:45:47.115Z,93.11
2023-08-01T02:48:15.525Z,93.10
2023-08-01T02:50:44.071Z,93.07
2023-08-01T02:53:12.629Z,93.66
2023-08-01T02:55:41.244Z,93.80
2023-08-01T02:58:09.837Z,94.00
2023-08-01T03:00:41.766Z,94.14
2023-08-01T03:03:10.463Z,94.70
2023-08-01T03:05:39.039Z,95.33
2023-08-01T03:08:07.474Z,95.92
2023-08-01T03:10:37.683Z,96.56
2023-08-01T03:13:06.240Z,96.55
2023-08-01T03:15:34.604Z,96.18
2023-08-01T03:18:03.173Z,96.57
2023-08-01T03:20:31.592Z,96.91
2023-08-01T03:23:00.000Z,96.95
2023-08-01T03:25:28.485Z,96.89
2023-08-01T03:27:58.015Z,96.69
2023-08-01T03:30:26.866Z,96.33
2023-08-01T03:32:56.556Z,95.53
2023-08-01T03:35:25.319Z,95.56
2023-08-01T03:37:54.229Z,95.20
2023-08-01T03:40:22.787Z,95.17
2023-08-01T03:42:51.174Z,95.14
2023-08-01T03:45:19.581Z,94.73
2023-08-01T03:47:48.040Z,94.31
2023-08-01T03:50:16.973Z,93.99
2023-08-01T03:52:45.429Z,94.01
2023-08-01T03:55:14.027Z,93.83
2023-08-01T03:57:44.658Z,94.01
2023-08-01T04:00:16.055Z,93.51
2023-08-01T04:02:48.729Z,93.81
2023-08-01T04:05:20.248Z,93.74
2023-08-01T04:07:48.819Z,93.25
2023-08-01T04:10:17.289Z,92.83
2023-08-01T04:12:45.846Z,92.41
2023-08-01T04:15:14.246Z,92.85
2023-08-01T04:17:42.707Z,93.43
2023-08-01T04:20:11.411Z,93.44
2023-08-01T04:22:39.857Z,92.78
2023-08-01T04:25:08.808Z,92.33
2023-08-01T04:27:37.174Z,92.11
2023-08-01T04:30:06.174Z,92.26
2023-08-01T04:32:34.688Z,92.30
2023-08-01T04:35:03.272Z,92.45
2023-08-01T04:37:31.652Z,91.92
2023-08-01T04:40:00.172Z,90.93
2023-08-01T04:42:28.717Z,90.78
2023-08-01T04:44:57.120Z,91.38
2023-08-01T04:47:25.614Z,92.29
2023-08-01T04:49:54.045Z,92.45
2023-08-01T04:52:22.614Z,92.46
2023-08-01T04:54:50.954Z,92.18
2023-08-01T04:57:19.465Z,91.86
2023-08-01T04:59:47.906Z,91.37
2023-08-01T05:02:16.443Z,90.51
2023-08-01T05:04:44.887Z,89.71
2023-08-01T05:07:14.532Z,89.98
2023-08-01T05:09:43.908Z,90.34
2023-08-01T05:12:12.448Z,89.74
2023-08-01T05:14:40.958Z,88.81
2023-08-01T05:17:09.394Z,89.44
2023-08-01T05:19:37.812Z,89.75
2023-08-01T05:22:06.545Z,89.16
2023-08-01T05:24:35.024Z,88.69
2023-08-01T05:27:03.916Z,89.88
2023-08-01T05:29:32.302Z,90.71
2023-08-01T05:32:01.065Z,89.92
2023-08-01T05:34:29.341Z,89.12
2023-08-01T05:36:57.864Z,88.23
2023-08-01T05:39:26.276Z,87.41
2023-08-01T05:41:54.666Z,86.80
2023-08-01T05:44:23.304Z,86.06
2023-08-01T05:46:51.784Z,85.84
2023-08-01T05:49:20.276Z,86.19
2023-08-01T05:51:48.660Z,85.71
2023-08-01T05:54:17.121Z,84.29
2023-08-01T05:56:45.539Z,83.90
2023-08-01T05:59:14.604Z,83.42
2023-08-01T06:01:43.414Z,82.99
2023-08-01T06:04:12.073Z,82.46
2023-08-01T06:06:41.122Z,81.86
2023-08-01T06:09:09.834Z,81.04
2023-08-01T06:11:38.264Z,80.98
2023-08-01T06:14:06.682Z,81.32
2023-08-01T06:16:35.312Z,81.57
2023-08-01T06:19:04.037Z,81.59
2023-08-01T06:21:32.540Z,81.91
2023-08-01T06:24:01.022Z,81.21
2023-08-01T06:26:39.771Z,81.11
2023-08-01T06:29:21.658Z,81.21
2023-08-01T06:31:52.701Z,80.41
2023-08-01T06:34:21.301Z,79.91
2023-08-01T06:36:49.733Z,79.87
2023-08-01T06:39:18.125Z,79.23
2023-08-01T06:41:46.603Z,79.34
2023-08-01T06:44:14.968Z,79.27
2023-08-01T06:46:44.011Z,79.03
2023-08-01T06:49:12.555Z,78.80
2023-08-01T06:51:42.904Z,79.25
2023-08-01T06:54:11.683Z,79.43
2023-08-01T06:56:40.462Z,78.80
2023-08-01T06:59:08.977Z,78.94
2023-08-01T07:01:40.427Z,78.91
2023-08-01T07:04:08.705Z,78.29
2023-08-01T07:06:37.212Z,77.65
2023-08-01T07:09:05.707Z,77.81
2023-08-01T07:11:34.381Z,78.52
2023-08-01T07:14:02.897Z,77.86
2023-08-01T07:16:31.838Z,77.29
2023-08-01T07:19:06.495Z,77.40
2023-08-01T07:21:36.037Z,77.77
2023-08-01T07:24:04.962Z,77.56
2023-08-01T07:26:33.526Z,77.58
2023-08-01T07:29:01.909Z,77.95
2023-08-01T07:31:31.415Z,77.60
2023-08-01T07:34:00.029Z,77.80
2023-08-01T07:36:29.747Z,78.71
2023-08-01T07:38:58.105Z,78.86
2023-08-01T07:41:26.720Z,79.07
2023-08-01T07:43:55.196Z,78.90
2023-08-01T07:46:23.651Z,79.21
2023-08-01T07:48:54.841Z,78.64
2023-08-01T07:51:23.384Z,77.48
2023-08-01T07:53:53.121Z,76.92
2023-08-01T07:56:21.636Z,76.83
2023-08-01T07:58:56.404Z,75.95
2023-08-01T08:01:25.087Z,77.04
2023-08-01T08:03:53.608Z,76.32
2023-08-01T08:06:25.492Z,76.67
2023-08-01T08:08:53.935Z,76.21
2023-08-01T08:11:22.554Z,75.41
2023-08-01T08:13:51.185Z,75.04
2023-08-01T08:16:20.172Z,74.52
2023-08-01T08:18:48.691Z,74.51
2023-08-01T08:21:17.177Z,74.19
2023-08-01T08:23:45.778Z,73.83
2023-08-01T08:26:14.197Z,74.02
2023-08-01T08:28:43.818Z,73.50
2023-08-01T08:31:12.388Z,71.54
2023-08-01T08:33:40.879Z,71.11
2023-08-01T08:36:09.266Z,71.98
2023-08-01T08:38:37.676Z,73.41
2023-08-01T08:41:15.297Z,71.01
2023-08-01T08:43:43.923Z,70.39
2023-08-01T08:46:13.595Z,69.82
2023-08-01T08:48:42.731Z,70.02
2023-08-01T08:51:12.179Z,69.81
2023-08-01T08:53:41.663Z,71.02
2023-08-01T08:56:11.003Z,70.92
2023-08-01T08:58:40.272Z,70.24
2023-08-01T09:01:09.526Z,69.56
2023-08-01T09:03:38.248Z,67.00
2023-08-01T09:06:15.757Z,67.21
2023-08-01T09:09:08.459Z,66.70
2023-08-01T09:11:48.466Z,64.91
2023-08-01T09:14:17.920Z,65.17
2023-08-01T09:16:48.108Z,64.43
2023-08-01T09:19:20.905Z,64.34
2023-08-01T09:21:49.588Z,61.34
2023-08-01T09:24:21.946Z,59.66
2023-08-01T09:26:50.915Z,58.36
2023-08-01T09:29:19.972Z,57.14
2023-08-01T09:31:49.227Z,55.01
2023-08-01T09:34:25.426Z,57.10
2023-08-01T09:37:01.233Z,59.35
2023-08-01T09:39:30.015Z,58.93
2023-08-01T09:41:59.808Z,59.61
2023-08-01T09:44:29.913Z,61.21
2023-08-01T09:47:00.181Z,59.82
2023-08-01T09:49:32.531Z,60.02
2023-08-01T09:52:02.908Z,60.93
2023-08-01T09:54:31.356Z,61.08
2023-08-01T09:57:01.636Z,61.44
2023-08-01T09:59:31.514Z,59.06
2023-08-01T10:02:02.582Z,58.14
2023-08-01T10:04:31.995Z,58.36
2023-08-01T10:07:04.066Z,56.95
2023-08-01T10:09:32.882Z,56.79
2023-08-01T10:12:01.528Z,56.36
2023-08-01T10:14:30.178Z,55.35
2023-08-01T10:16:59.278Z,54.32
2023-08-01T10:19:27.958Z,51.76
2023-08-01T10:21:56.945Z,50.91
2023-08-01T10:24:28.485Z,50.52
2023-08-01T10:26:57.098Z,51.13
2023-08-01T10:29:38.214Z,51.19
2023-08-01T10:32:09.060Z,50.74
2023-08-01T10:34:37.788Z,50.95
2023-08-01T10:37:06.390Z,48.60
2023-08-01T10:39:34.995Z,49.22
2023-08-01T10:42:05.190Z,50.45
2023-08-01T10:44:35.680Z,50.05
2023-08-01T10:47:05.982Z,49.17
2023-08-01T10:49:44.143Z,47.71
2023-08-01T10:52:19.408Z,45.68
2023-08-01T10:54:48.132Z,45.75
2023-08-01T10:57:21.143Z,45.70
2023-08-01T10:59:49.625Z,45.95
2023-08-01T11:02:25.500Z,45.47
2023-08-01T11:04:58.941Z,44.80
2023-08-01T11:07:28.037Z,45.48
2023-08-01T11:10:23.550Z,44.89
2023-08-01T11:12:52.092Z,44.69
2023-08-01T11:15:21.065Z,44.82
2023-08-01T11:17:54.118Z,44.01
2023-08-01T11:20:24.527Z,43.20
2023-08-01T11:23:01.149Z,42.66
2023-08-01T11:25:50.473Z,42.01
2023-08-01T11:28:19.076Z,42.06
2023-08-01T11:30:48.082Z,41.87
2023-08-01T11:33:17.229Z,40.78
2023-08-01T11:35:45.797Z,40.72
2023-08-01T11:38:14.203Z,41.32
2023-08-01T11:40:43.925Z,41.34
2023-08-01T11:43:12.406Z,41.16
2023-08-01T11:45:52.913Z,40.06
2023-08-01T11:48:25.040Z,39.00
2023-08-01T11:51:00.048Z,39.69
2023-08-01T11:53:29.605Z,39.13
2023-08-01T11:55:58.309Z,38.60
2023-08-01T11:58:37.476Z,39.48
2023-08-01T12:01:14.729Z,37.70
2023-08-01T12:03:54.229Z,36.31
2023-08-01T12:06:24.695Z,35.75
2023-08-01T12:08:54.336Z,36.67
2023-08-01T12:11:31.334Z,37.12
2023-08-01T12:14:16.049Z,37.25
2023-08-01T12:16:47.456Z,37.15
2023-08-01T12:19:20.773Z,37.14
2023-08-01T12:21:50.020Z,36.88
2023-08-01T12:24:18.570Z,35.29
2023-08-01T12:26:46.978Z,34.84
2023-08-01T12:29:15.329Z,35.68
2023-08-01T12:31:43.951Z,34.97
2023-08-01T12:34:12.529Z,34.29
2023-08-01T12:36:41.180Z,34.64
2023-08-01T12:39:13.006Z,34.55
2023-08-01T12:41:41.436Z,35.30
2023-08-01T12:44:09.809Z,35.86
2023-08-01T12:46:38.410Z,33.56
2023-08-01T12:49:07.005Z,33.14
2023-08-01T12:51:35.386Z,32.81
2023-08-01T12:54:03.943Z,31.93
2023-08-01T12:56:32.436Z,31.26
2023-08-01T12:59:00.832Z,28.66
2023-08-01T13:01:29.355Z,27.42
2023-08-01T13:03:57.930Z,27.50
2023-08-01T13:06:26.558Z,29.25
2023-08-01T13:08:55.026Z,30.09
2023-08-01T13:11:23.499Z,30.56
2023-08-01T13:13:52.015Z,30.48
2023-08-01T13:16:20.507Z,30.05
2023-08-01T13:18:49.636Z,29.61
2023-08-01T13:21:18.124Z,29.36
2023-08-01T13:23:46.549Z,29.37
2023-08-01T13:26:15.103Z,27.61
2023-08-01T13:28:43.538Z,26.72
2023-08-01T13:31:12.027Z,25.18
2023-08-01T13:33:40.515Z,25.30
2023-08-01T13:36:09.112Z,25.22
2023-08-01T13:38:37.583Z,25.24
2023-08-01T13:41:06.060Z,25.35
2023-08-01T13:43:34.641Z,25.76
2023-08-01T13:46:23.860Z,25.94
2023-08-01T13:48:58.147Z,26.08
2023-08-01T13:51:26.650Z,28.52
2023-08-01T13:53:56.469Z,28.28
2023-08-01T13:56:25.108Z,28.11
2023-08-01T13:58:53.636Z,28.73
2023-08-01T14:01:22.101Z,28.27
2023-08-01T14:03:50.593Z,27.85
2023-08-01T14:06:19.415Z,27.04
2023-08-01T14:08:48.014Z,27.63
2023-08-01T14:11:16.472Z,27.51
2023-08-01T14:13:44.885Z,27.98
2023-08-01T14:16:13.455Z,27.89
2023-08-01T14:18:42.829Z,28.33
2023-08-01T14:21:11.271Z,28.41
2023-08-01T14:23:40.259Z,27.72
2023-08-01T14:26:08.636Z,28.01
2023-08-01T14:28:37.076Z,27.89
2023-08-01T14:31:05.880Z,28.02
2023-08-01T14:33:34.648Z,28.35
2023-08-01T14:36:03.263Z,28.55
2023-08-01T14:38:31.862Z,29.06
2023-08-01T14:41:07.476Z,29.07
2023-08-01T14:43:40.140Z,29.79
2023-08-01T14:46:08.667Z,30.27
2023-08-01T14:48:37.040Z,30.83
2023-08-01T14:51:08.945Z,31.48
2023-08-01T14:53:37.331Z,31.83
2023-08-01T14:56:08.010Z,32.17
2023-08-01T14:58:41.107Z,31.68
2023-08-01T15:01:16.335Z,30.77
2023-08-01T15:03:44.843Z,30.78
2023-08-01T15:06:14.505Z,29.26
2023-08-01T15:08:43.246Z,28.46
2023-08-01T15:11:11.748Z,28.23
2023-08-01T15:13:40.302Z,28.57
2023-08-01T15:16:15.864Z,28.12
2023-08-01T15:18:44.606Z,28.76
2023-08-01T15:21:12.975Z,29.59
2023-08-01T15:23:41.509Z,29.89
2023-08-01T15:26:10.069Z,29.89
2023-08-01T15:28:38.417Z,30.37
2023-08-01T15:31:08.312Z,31.12
2023-08-01T15:33:38.673Z,31.84
2023-08-01T15:36:08.454Z,31.85
2023-08-01T15:38:38.577Z,32.58
2023-08-01T15:41:10.560Z,32.86
2023-08-01T15:43:40.830Z,33.65
2023-08-01T15:46:10.467Z,34.09
2023-08-01T15:48:39.198Z,34.94
2023-08-01T15:51:08.152Z,34.89
2023-08-01T15:53:37.111Z,35.14
2023-08-01T15:56:08.082Z,35.22
2023-08-01T15:58:36.484Z,35.11
2023-08-01T16:01:05.065Z,35.35
2023-08-01T16:03:33.538Z,35.16
2023-08-01T16:06:02.291Z,34.98
2023-08-01T16:08:30.741Z,34.28
2023-08-01T16:10:59.098Z,32.98
2023-08-01T16:13:27.683Z,31.89
2023-08-01T16:15:56.224Z,30.44
2023-08-01T16:18:24.629Z,30.16
2023-08-01T16:20:53.218Z,31.04
2023-08-01T16:23:22.476Z,31.75
2023-08-01T16:25:51.057Z,32.26
2023-08-01T16:28:19.467Z,32.93
2023-08-01T16:30:50.158Z,33.83
2023-08-01T16:33:18.908Z,34.19
2023-08-01T16:35:47.318Z,34.89
2023-08-01T16:38:15.668Z,35.77
2023-08-01T16:40:44.072Z,36.53
2023-08-01T16:43:12.339Z,36.50
2023-08-01T16:45:41.054Z,36.67
2023-08-01T16:48:09.609Z,37.06
2023-08-01T16:50:38.136Z,37.66
2023-08-01T16:53:07.017Z,38.08
2023-08-01T16:55:35.456Z,38.59
2023-08-01T16:58:03.925Z,39.26
2023-08-01T17:00:32.398Z,39.45
2023-08-01T17:03:01.483Z,39.70
2023-08-01T17:05:30.099Z,39.90
2023-08-01T17:07:58.551Z,40.26
2023-08-01T17:10:27.562Z,40.26
2023-08-01T17:12:55.967Z,40.51
2023-08-01T17:15:24.464Z,40.93
2023-08-01T17:17:53.334Z,41.13
2023-08-01T17:20:21.892Z,41.63
2023-08-01T17:22:50.347Z,42.05
2023-08-01T17:25:18.802Z,42.22
2023-08-01T17:27:47.364Z,42.40
2023-08-01T17:30:15.841Z,42.96
2023-08-01T17:32:44.545Z,43.12
2023-08-01T17:35:12.987Z,43.30
2023-08-01T17:37:41.440Z,43.62
2023-08-01T17:40:10.326Z,43.99
2023-08-01T17:42:38.685Z,44.25
2023-08-01T17:45:07.718Z,44.57
2023-08-01T17:47:36.180Z,44.72
2023-08-01T17:50:06.532Z,44.90
2023-08-01T17:52:34.944Z,45.19
2023-08-01T17:55:03.799Z,45.56
2023-08-01T17:57:32.171Z,45.81
2023-08-01T18:00:00.829Z,46.04
2023-08-01T18:02:29.979Z,46.45
2023-08-01T18:04:58.499Z,46.81
2023-08-01T18:07:26.971Z,47.06
2023-08-01T18:09:55.436Z,47.35
2023-08-01T18:12:23.856Z,47.58
2023-08-01T18:14:52.500Z,47.83
2023-08-01T18:17:21.826Z,47.90
2023-08-01T18:19:50.322Z,48.33
2023-08-01T18:22:18.769Z,48.57
2023-08-01T18:24:47.489Z,48.67
2023-08-01T18:27:15.984Z,48.89
2023-08-01T18:29:44.435Z,48.95
2023-08-01T18:32:14.063Z,49.58
2023-08-01T18:34:42.467Z,49.77
2023-08-01T18:37:10.870Z,49.94
2023-08-01T18:39:39.259Z,49.91
2023-08-01T18:42:07.673Z,49.86
2023-08-01T18:44:36.029Z,50.00
2023-08-01T18:47:04.534Z,50.31
2023-08-01T18:49:32.920Z,50.42
2023-08-01T18:52:01.424Z,50.74
2023-08-01T18:54:29.931Z,50.74
2023-08-01T18:56:58.820Z,50.63
2023-08-01T18:59:27.447Z,50.84
2023-08-01T19:01:55.900Z,50.98
2023-08-01T19:04:24.397Z,51.15
2023-08-01T19:06:52.924Z,51.12
2023-08-01T19:09:21.884Z,51.29
2023-08-01T19:11:50.502Z,51.48
2023-08-01T19:14:18.882Z,51.44
2023-08-01T19:16:47.394Z,51.34
2023-08-01T19:19:15.878Z,51.38
2023-08-01T19:21:44.393Z,51.63
2023-08-01T19:24:12.790Z,51.79
2023-08-01T19:26:41.620Z,51.75
2023-08-01T19:29:11.091Z,51.87
2023-08-01T19:31:39.569Z,52.29
2023-08-01T19:34:07.946Z,52.58
2023-08-01T19:36:36.448Z,52.83
2023-08-01T19:39:05.033Z,52.81
2023-08-01T19:41:35.360Z,52.96
2023-08-01T19:44:03.953Z,53.25
2023-08-01T19:46:32.410Z,53.37
2023-08-01T19:49:00.841Z,53.66
2023-08-01T19:51:29.185Z,53.99
2023-08-01T19:53:57.670Z,53.88
2023-08-01T19:56:26.102Z,53.89
2023-08-01T19:58:55.511Z,54.34
2023-08-01T20:01:23.936Z,54.56
2023-08-01T20:03:52.455Z,55.14
2023-08-01T20:06:21.037Z,55.21
2023-08-01T20:08:49.447Z,55.46
2023-08-01T20:11:17.913Z,55.33
2023-08-01T20:13:46.550Z,55.41
2023-08-01T20:16:14.980Z,54.97
2023-08-01T20:18:43.342Z,55.15
2023-08-01T20:21:11.813Z,55.09
2023-08-01T20:23:40.429Z,55.20
2023-08-01T20:26:08.946Z,55.05
2023-08-01T20:28:37.567Z,54.99
2023-08-01T20:31:06.326Z,55.43
2023-08-01T20:33:35.145Z,55.45
2023-08-01T20:36:03.758Z,55.70
2023-08-01T20:38:32.415Z,55.86
2023-08-01T20:41:00.827Z,56.08
2023-08-01T20:43:29.739Z,56.52
2023-08-01T20:45:58.193Z,56.65
2023-08-01T20:48:26.547Z,56.38
2023-08-01T20:50:55.124Z,56.30
2023-08-01T20:53:23.539Z,56.34
2023-08-01T20:55:51.910Z,56.49
2023-08-01T20:58:21.622Z,56.56
2023-08-01T21:00:50.128Z,56.55
2023-08-01T21:03:19.500Z,56.38
2023-08-01T21:05:47.925Z,56.62
2023-08-01T21:08:16.468Z,56.59
2023-08-01T21:10:44.879Z,56.53
2023-08-01T21:13:13.292Z,56.46
2023-08-01T21:15:41.730Z,56.60
2023-08-01T21:18:10.282Z,56.62
2023-08-01T21:20:38.799Z,56.53
2023-08-01T21:23:07.260Z,56.66
2023-08-01T21:25:35.660Z,56.84
2023-08-01T21:28:04.319Z,56.95
2023-08-01T21:30:32.819Z,56.81
2023-08-01T21:33:01.230Z,56.91
2023-08-01T21:35:29.785Z,57.03
2023-08-01T21:37:58.200Z,57.00
2023-08-01T21:40:26.579Z,57.12
2023-08-01T21:42:54.972Z,57.30
2023-08-01T21:45:25.483Z,57.35
2023-08-01T21:47:54.003Z,57.59
2023-08-01T21:50:22.735Z,57.79
2023-08-01T21:52:51.180Z,57.94
2023-08-01T21:55:20.648Z,57.88
2023-08-01T21:57:50.136Z,58.02
2023-08-01T22:00:18.558Z,57.86
2023-08-01T22:02:46.997Z,58.16
2023-08-01T22:05:15.760Z,58.27
2023-08-01T22:07:44.278Z,58.34
2023-08-01T22:10:12.745Z,58.48
2023-08-01T22:12:43.710Z,58.88
2023-08-01T22:15:12.161Z,59.23
2023-08-01T22:17:40.894Z,59.47
2023-08-01T22:20:10.809Z,59.40
2023-08-01T22:22:39.352Z,59.33
2023-08-01T22:25:09.258Z,59.24
2023-08-01T22:27:38.149Z,59.40
2023-08-01T22:30:07.135Z,59.73
2023-08-01T22:32:35.717Z,59.77
2023-08-01T22:35:04.556Z,59.91
2023-08-01T22:37:33.161Z,60.00
2023-08-01T22:40:02.779Z,60.18
2023-08-01T22:42:31.210Z,60.24
2023-08-01T22:45:01.618Z,60.36
2023-08-01T22:47:30.203Z,60.03
2023-08-01T22:50:05.505Z,60.03
2023-08-01T22:52:35.218Z,60.08
2023-08-01T22:55:04.885Z,60.23
2023-08-01T22:57:33.383Z,60.37
2023-08-01T23:00:01.781Z,60.45
2023-08-01T23:02:31.121Z,60.39
2023-08-01T23:04:59.551Z,60.34
2023-08-01T23:07:28.112Z,60.52
2023-08-01T23:10:05.448Z,60.48
2023-08-01T23:12:34.279Z,60.35
2023-08-01T23:15:03.350Z,60.41
2023-08-01T23:17:36.365Z,60.38
2023-08-01T23:20:05.448Z,60.40
2023-08-01T23:22:34.953Z,60.28
2023-08-01T23:25:03.658Z,60.37
2023-08-01T23:27:32.175Z,60.40
2023-08-01T23:30:00.583Z,60.37
2023-08-01T23:32:29.101Z,60.47
2023-08-01T23:34:57.538Z,60.56
2023-08-01T23:37:25.928Z,60.71
2023-08-01T23:39:54.348Z,60.78
2023-08-01T23:42:22.780Z,60.93
2023-08-01T23:44:51.369Z,61.00
2023-08-01T23:47:19.833Z,61.15
2023-08-01T23:49:48.758Z,61.19
2023-08-01T23:52:17.190Z,61.33
2023-08-01T23:54:45.591Z,61.44
2023-08-01T23:57:14.401Z,61.69
2023-08-01T23:59:42.767Z,61.88
